createdAt,value
2023-03-05T00:02:44.150Z,15.55
2023-03-05T00:05:42.224Z,13.52
2023-03-05T00:08:41.178Z,11.80
2023-03-05T00:11:40.372Z,12.10
2023-03-05T00:14:38.306Z,13.70
2023-03-05T00:17:36.509Z,12.70
2023-03-05T00:20:36.585Z,12.63
2023-03-05T00:23:34.628Z,12.40
2023-03-05T00:26:34.964Z,15.57
2023-03-05T00:29:33.056Z,11.05
2023-03-05T00:32:31.159Z,13.52
2023-03-05T00:35:29.266Z,10.77
2023-03-05T00:38:27.115Z,11.10
2023-03-05T00:41:25.256Z,11.45
2023-03-05T00:44:23.213Z,11.15
2023-03-05T00:47:21.211Z,11.73
2023-03-05T00:50:19.150Z,12.65
2023-03-05T00:53:17.096Z,13.95
2023-03-05T00:56:14.871Z,12.43
2023-03-05T00:59:12.813Z,17.23
2023-03-05T01:02:11.024Z,13.52
2023-03-05T01:05:11.832Z,15.43
2023-03-05T01:08:09.753Z,14.30
2023-03-05T01:11:08.134Z,15.70
2023-03-05T01:14:05.991Z,14.45
2023-03-05T01:17:03.945Z,18.42
2023-03-05T01:20:02.858Z,14.82
2023-03-05T01:23:02.421Z,16.80
2023-03-05T01:26:00.973Z,14.82
2023-03-05T01:28:58.884Z,17.20
2023-03-05T01:31:59.554Z,14.70
2023-03-05T01:34:57.468Z,13.25
2023-03-05T01:37:55.497Z,16.90
2023-03-05T01:40:56.103Z,9.63
2023-03-05T01:43:54.267Z,16.05
2023-03-05T01:46:52.262Z,14.82
2023-03-05T01:49:52.941Z,19.83
2023-03-05T01:52:58.330Z,22.75
2023-03-05T01:55:56.347Z,28.45
2023-03-05T01:59:03.982Z,26.15
2023-03-05T02:02:02.261Z,22.77
2023-03-05T02:05:08.221Z,18.77
2023-03-05T02:08:09.448Z,16.60
2023-03-05T02:11:08.264Z,15.18
2023-03-05T02:14:08.436Z,15.18
2023-03-05T02:17:08.537Z,14.35
2023-03-05T02:20:13.192Z,15.48
2023-03-05T02:23:12.182Z,12.18
2023-03-05T02:26:11.753Z,13.63
2023-03-05T02:29:11.328Z,12.10
2023-03-05T02:32:10.080Z,15.02
2023-03-05T02:35:08.308Z,12.73
2023-03-05T02:38:06.340Z,14.93
2023-03-05T02:41:04.313Z,13.50
2023-03-05T02:44:02.143Z,12.15
2023-03-05T02:47:00.160Z,16.13
2023-03-05T02:49:58.328Z,17.60
2023-03-05T02:52:56.306Z,16.67
2023-03-05T02:55:54.168Z,14.52
2023-03-05T02:58:52.277Z,16.25
2023-03-05T03:01:50.085Z,18.40
2023-03-05T03:04:48.100Z,14.35
2023-03-05T03:07:46.212Z,13.38
2023-03-05T03:10:44.166Z,14.40
2023-03-05T03:13:42.633Z,11.85
2023-03-05T03:16:40.641Z,14.35
2023-03-05T03:19:39.371Z,15.07
2023-03-05T03:22:37.337Z,13.38
2023-03-05T03:25:35.547Z,17.50
2023-03-05T03:28:33.443Z,19.70
2023-03-05T03:31:31.371Z,13.35
2023-03-05T03:34:29.417Z,16.40
2023-03-05T03:37:27.439Z,14.75
2023-03-05T03:40:25.347Z,14.52
2023-03-05T03:43:23.224Z,17.98
2023-03-05T03:46:21.330Z,16.27
2023-03-05T03:49:22.802Z,13.65
2023-03-05T03:52:20.891Z,11.48
2023-03-05T03:55:19.279Z,22.35
2023-03-05T03:58:17.280Z,17.45
2023-03-05T04:01:15.321Z,18.20
2023-03-05T04:04:14.530Z,18.58
2023-03-05T04:07:12.516Z,16.52
2023-03-05T04:10:11.176Z,16.83
2023-03-05T04:13:09.434Z,17.23
2023-03-05T04:16:07.838Z,15.90
2023-03-05T04:19:05.689Z,19.67
2023-03-05T04:22:03.594Z,20.92
2023-03-05T04:25:01.391Z,23.17
2023-03-05T04:27:59.390Z,20.77
2023-03-05T04:30:57.256Z,17.98
2023-03-05T04:33:55.243Z,20.90
2023-03-05T04:36:53.065Z,16.15
2023-03-05T04:39:51.236Z,17.95
2023-03-05T04:42:49.099Z,17.83
2023-03-05T04:45:47.201Z,18.83
2023-03-05T04:48:45.037Z,18.25
2023-03-05T04:51:43.167Z,17.10
2023-03-05T04:54:41.638Z,13.48
2023-03-05T04:57:40.424Z,11.57
2023-03-05T05:00:38.607Z,14.80
2023-03-05T05:03:36.528Z,21.05
2023-03-05T05:06:34.435Z,21.63
2023-03-05T05:09:32.352Z,28.00
2023-03-05T05:12:31.442Z,25.75
2023-03-05T05:15:29.326Z,40.03
2023-03-05T05:18:27.364Z,31.92
2023-03-05T05:21:25.525Z,43.03
2023-03-05T05:24:23.356Z,37.80
2023-03-05T05:27:21.685Z,28.02
2023-03-05T05:30:20.533Z,33.05
2023-03-05T05:33:18.499Z,38.42
2023-03-05T05:36:19.661Z,60.00
2023-03-05T05:39:19.557Z,82.03
2023-03-05T05:42:19.604Z,83.05
2023-03-05T05:45:17.572Z,76.05
2023-03-05T05:48:15.575Z,80.90
2023-03-05T05:51:16.710Z,71.65
2023-03-05T05:54:15.394Z,85.07
2023-03-05T05:57:13.375Z,73.53
2023-03-05T06:00:13.276Z,74.15
2023-03-05T06:03:11.269Z,77.22
2023-03-05T06:06:13.946Z,67.38
2023-03-05T06:09:12.296Z,71.05
2023-03-05T06:12:10.277Z,81.38
2023-03-05T06:15:08.727Z,81.22
2023-03-05T06:18:06.690Z,80.65
2023-03-05T06:21:08.265Z,67.05
2023-03-05T06:24:06.589Z,66.32
2023-03-05T06:27:05.416Z,61.28
2023-03-05T06:30:04.274Z,60.95
2023-03-05T06:33:02.484Z,74.30
2023-03-05T06:36:00.940Z,64.80
2023-03-05T06:39:02.496Z,63.40
2023-03-05T06:42:00.308Z,59.97
2023-03-05T06:44:58.247Z,60.13
2023-03-05T06:47:56.024Z,64.57
2023-03-05T06:50:53.960Z,70.80
2023-03-05T06:53:52.679Z,67.68
2023-03-05T06:56:50.710Z,64.68
2023-03-05T06:59:48.488Z,68.93
2023-03-05T07:02:46.393Z,65.68
2023-03-05T07:05:45.199Z,66.40
2023-03-05T07:08:45.328Z,57.58
2023-03-05T07:11:46.519Z,57.25
2023-03-05T07:14:44.402Z,60.70
2023-03-05T07:17:42.185Z,62.20
2023-03-05T07:20:40.274Z,56.13
2023-03-05T07:23:38.147Z,68.28
2023-03-05T07:26:38.980Z,67.80
2023-03-05T07:29:37.465Z,57.75
2023-03-05T07:32:36.646Z,51.97
2023-03-05T07:35:34.487Z,50.95
2023-03-05T07:38:33.032Z,43.22
2023-03-05T07:41:30.863Z,34.38
2023-03-05T07:44:28.739Z,23.88
2023-03-05T07:47:26.766Z,17.75
2023-03-05T07:50:25.207Z,10.45
2023-03-05T07:53:25.774Z,17.05
2023-03-05T07:56:25.574Z,25.08
2023-03-05T07:59:23.593Z,21.17
2023-03-05T08:02:22.222Z,19.48
2023-03-05T08:05:20.056Z,26.73
2023-03-05T08:08:18.478Z,26.20
2023-03-05T08:11:17.055Z,18.83
2023-03-05T08:14:15.152Z,20.92
2023-03-05T08:17:12.966Z,24.10
2023-03-05T08:20:11.975Z,32.38
2023-03-05T08:23:11.507Z,37.55
2023-03-05T08:26:15.806Z,30.98
2023-03-05T08:29:17.211Z,51.42
2023-03-05T08:32:15.301Z,57.80
2023-03-05T08:35:16.398Z,55.45
2023-03-05T08:38:15.306Z,76.20
2023-03-05T08:41:14.206Z,67.00
2023-03-05T08:44:12.684Z,79.57
2023-03-05T08:47:13.785Z,93.85
2023-03-05T08:50:15.663Z,84.95
2023-03-05T08:53:20.010Z,74.27
2023-03-05T08:56:18.020Z,80.35
2023-03-05T08:59:18.156Z,76.82
2023-03-05T09:02:19.085Z,72.60
2023-03-05T09:05:18.270Z,59.35
2023-03-05T09:08:16.751Z,84.20
2023-03-05T09:11:17.147Z,93.82
2023-03-05T09:14:15.467Z,89.90
2023-03-05T09:17:13.137Z,83.35
2023-03-05T09:20:14.457Z,95.43
2023-03-05T09:23:49.749Z,86.53
2023-03-05T09:26:47.728Z,88.97
2023-03-05T09:29:45.661Z,79.00
2023-03-05T09:32:43.830Z,95.03
2023-03-05T09:35:41.711Z,79.63
2023-03-05T09:38:41.527Z,87.15
2023-03-05T09:42:10.408Z,86.45
2023-03-05T09:45:39.166Z,95.15
2023-03-05T09:48:53.520Z,88.88
2023-03-05T09:51:56.548Z,86.97
2023-03-05T09:54:57.797Z,81.45
2023-03-05T09:58:02.899Z,80.68
2023-03-05T10:01:05.727Z,75.93
2023-03-05T10:07:30.421Z,86.43
2023-03-05T10:10:44.000Z,92.85
2023-03-05T10:13:46.131Z,107.40
2023-03-05T10:16:56.923Z,93.30
2023-03-05T10:20:16.303Z,103.70
2023-03-05T10:23:30.302Z,93.78
2023-03-05T10:26:48.908Z,91.47
2023-03-05T10:30:00.235Z,90.70
2023-03-05T10:33:09.911Z,97.22
2023-03-05T10:36:28.024Z,103.13
2023-03-05T10:39:51.201Z,88.25
2023-03-05T10:43:19.705Z,80.13
2023-03-05T10:46:21.089Z,85.60
2023-03-05T10:49:23.530Z,90.82
2023-03-05T10:52:27.638Z,78.28
2023-03-05T10:55:25.557Z,77.60
2023-03-05T10:58:28.459Z,87.18
2023-03-05T11:01:29.115Z,82.32
2023-03-05T11:04:29.995Z,75.88
2023-03-05T11:07:38.033Z,84.97
2023-03-05T11:10:35.858Z,79.03
2023-03-05T11:13:37.037Z,78.13
2023-03-05T11:16:50.865Z,78.55
2023-03-05T11:19:48.877Z,73.85
2023-03-05T11:23:08.026Z,77.07
2023-03-05T11:26:22.730Z,78.47
2023-03-05T11:29:24.881Z,85.18
2023-03-05T11:32:28.333Z,83.50
2023-03-05T11:35:38.638Z,95.50
2023-03-05T11:38:50.386Z,109.90
2023-03-05T11:42:06.896Z,88.55
2023-03-05T11:45:09.500Z,95.47
2023-03-05T11:48:21.432Z,82.45
2023-03-05T11:51:26.349Z,88.72
2023-03-05T11:54:32.118Z,84.47
2023-03-05T11:57:35.687Z,96.20
2023-03-05T12:00:39.384Z,92.88
2023-03-05T12:03:42.405Z,87.43
2023-03-05T12:06:59.477Z,79.25
2023-03-05T12:09:57.814Z,75.22
2023-03-05T12:13:29.619Z,68.85
2023-03-05T12:16:54.517Z,67.90
2023-03-05T12:20:05.131Z,87.00
2023-03-05T12:23:03.121Z,80.43
2023-03-05T12:26:05.861Z,92.15
2023-03-05T12:29:03.802Z,97.85
2023-03-05T12:32:06.132Z,95.35
2023-03-05T12:35:24.749Z,85.30
2023-03-05T12:38:39.361Z,87.22
2023-03-05T12:41:38.235Z,95.38
2023-03-05T12:44:36.090Z,85.78
2023-03-05T12:47:34.046Z,76.05
2023-03-05T12:50:52.455Z,72.43
2023-03-05T12:53:54.571Z,70.85
2023-03-05T12:56:54.358Z,70.97
2023-03-05T13:00:26.571Z,62.90
2023-03-05T13:03:32.904Z,63.50
2023-03-05T13:06:41.397Z,57.15
2023-03-05T13:09:39.342Z,52.75
2023-03-05T13:12:41.847Z,49.45
2023-03-05T13:15:40.171Z,51.20
2023-03-05T13:18:41.772Z,48.88
2023-03-05T13:21:39.626Z,48.00
2023-03-05T13:24:40.598Z,49.53
2023-03-05T13:27:38.411Z,45.08
2023-03-05T13:30:36.358Z,37.90
2023-03-05T13:33:36.601Z,37.35
2023-03-05T13:36:34.755Z,38.63
2023-03-05T13:39:36.175Z,45.17
2023-03-05T13:42:39.539Z,37.63
2023-03-05T13:45:40.739Z,37.78
2023-03-05T13:48:41.968Z,31.48
2023-03-05T13:51:45.542Z,35.78
2023-03-05T13:54:43.696Z,31.63
2023-03-05T13:57:45.237Z,31.80
2023-03-05T14:00:43.496Z,32.28
2023-03-05T14:03:42.558Z,30.30
2023-03-05T14:06:56.473Z,41.67
2023-03-05T14:09:54.971Z,36.90
2023-03-05T14:12:55.771Z,41.08
2023-03-05T14:16:10.431Z,39.88
2023-03-05T14:19:37.078Z,42.15
2023-03-05T14:22:37.686Z,37.92
2023-03-05T14:25:40.188Z,37.58
2023-03-05T14:28:38.257Z,32.55
2023-03-05T14:32:00.504Z,38.65
2023-03-05T14:35:03.157Z,31.63
2023-03-05T14:38:01.801Z,29.15
2023-03-05T14:41:02.388Z,27.95
2023-03-05T14:44:00.649Z,24.92
2023-03-05T14:47:01.070Z,28.35
2023-03-05T14:49:59.311Z,21.23
2023-03-05T14:53:02.299Z,23.52
2023-03-05T14:56:02.280Z,26.92
2023-03-05T14:59:03.447Z,24.80
2023-03-05T15:02:14.606Z,26.05
2023-03-05T15:05:15.622Z,22.75
2023-03-05T15:08:20.600Z,22.75
2023-03-05T15:11:20.384Z,22.35
2023-03-05T15:14:18.294Z,20.92
2023-03-05T15:17:21.375Z,23.88
2023-03-05T15:20:23.781Z,24.77
2023-03-05T15:23:29.647Z,21.20
2023-03-05T15:26:27.570Z,20.35
2023-03-05T15:29:25.383Z,27.17
2023-03-05T15:32:31.555Z,27.20
2023-03-05T15:35:35.568Z,22.25
2023-03-05T15:38:33.580Z,22.13
2023-03-05T15:41:34.343Z,20.98
2023-03-05T15:44:32.283Z,28.38
2023-03-05T15:47:33.109Z,26.27
2023-03-05T15:50:31.401Z,19.50
2023-03-05T15:53:29.383Z,21.08
2023-03-05T15:56:30.230Z,20.10
2023-03-05T15:59:28.144Z,24.17
2023-03-05T16:02:26.107Z,19.17
2023-03-05T16:05:24.379Z,15.75
2023-03-05T16:08:22.333Z,20.38
2023-03-05T16:11:22.760Z,21.73
2023-03-05T16:14:24.220Z,17.75
2023-03-05T16:17:23.149Z,22.10
2023-03-05T16:20:24.255Z,23.85
2023-03-05T16:23:22.941Z,20.85
2023-03-05T16:26:21.063Z,21.10
2023-03-05T16:29:18.914Z,24.40
2023-03-05T16:32:20.577Z,24.42
2023-03-05T16:35:19.121Z,22.58
2023-03-05T16:38:17.827Z,21.88
2023-03-05T16:41:19.057Z,17.35
2023-03-05T16:44:17.029Z,20.33
2023-03-05T16:47:15.074Z,22.70
2023-03-05T16:50:13.741Z,17.88
2023-03-05T16:53:11.612Z,23.52
2023-03-05T16:56:12.511Z,18.27
2023-03-05T16:59:10.602Z,19.42
2023-03-05T17:02:13.685Z,18.33
2023-03-05T17:05:13.710Z,16.27
2023-03-05T17:08:11.710Z,18.48
2023-03-05T17:11:11.160Z,21.08
2023-03-05T17:14:09.397Z,18.00
2023-03-05T17:17:07.184Z,18.95
2023-03-05T17:20:05.862Z,18.58
2023-03-05T17:23:04.089Z,17.63
2023-03-05T17:26:09.225Z,17.65
2023-03-05T17:29:10.332Z,21.00
2023-03-05T17:32:08.318Z,18.35
2023-03-05T17:35:06.571Z,20.92
2023-03-05T17:38:06.054Z,22.63
2023-03-05T17:41:04.420Z,22.65
2023-03-05T17:44:02.723Z,17.17
2023-03-05T17:47:00.555Z,23.42
2023-03-05T17:49:58.552Z,25.98
2023-03-05T17:52:56.519Z,20.67
2023-03-05T17:55:54.578Z,18.50
2023-03-05T17:58:53.617Z,17.65
2023-03-05T18:01:51.881Z,18.40
2023-03-05T18:04:52.573Z,18.33
2023-03-05T18:07:51.177Z,13.35
2023-03-05T18:10:49.211Z,14.43
2023-03-05T18:13:47.200Z,16.88
2023-03-05T18:16:45.523Z,18.45
2023-03-05T18:19:43.691Z,16.73
2023-03-05T18:22:41.611Z,17.42
2023-03-05T18:25:39.576Z,13.20
2023-03-05T18:28:37.422Z,16.17
2023-03-05T18:31:35.494Z,15.27
2023-03-05T18:34:33.466Z,15.98
2023-03-05T18:37:34.269Z,15.25
2023-03-05T18:40:35.675Z,13.88
2023-03-05T18:43:33.631Z,17.42
2023-03-05T18:46:31.575Z,17.75
2023-03-05T18:49:30.237Z,16.92
2023-03-05T18:52:28.326Z,20.17
2023-03-05T18:55:29.459Z,16.17
2023-03-05T18:58:27.375Z,13.05
2023-03-05T19:01:25.380Z,12.68
2023-03-05T19:04:24.336Z,12.77
2023-03-05T19:07:22.510Z,16.63
2023-03-05T19:10:20.636Z,15.05
2023-03-05T19:13:51.354Z,13.85
2023-03-05T19:16:49.374Z,15.35
2023-03-05T19:19:52.284Z,15.35
2023-03-05T19:22:51.512Z,14.52
2023-03-05T19:25:49.478Z,15.90
2023-03-05T19:28:47.505Z,14.80
2023-03-05T19:31:45.454Z,12.73
2023-03-05T19:34:45.497Z,12.88
2023-03-05T19:37:46.411Z,13.15
2023-03-05T19:40:44.279Z,12.40
2023-03-05T19:43:42.530Z,12.65
2023-03-05T19:46:42.351Z,14.90
2023-03-05T19:49:40.416Z,19.30
2023-03-05T19:52:38.381Z,16.33
2023-03-05T19:55:41.535Z,12.65
2023-03-05T20:01:41.125Z,13.95
2023-03-05T20:04:40.962Z,14.43
2023-03-05T20:07:38.930Z,19.45
2023-03-05T20:10:36.772Z,12.30
2023-03-05T20:13:34.902Z,12.77
2023-03-05T20:16:36.597Z,14.38
2023-03-05T20:19:34.681Z,14.60
2023-03-05T20:22:32.629Z,18.25
2023-03-05T20:25:30.609Z,15.70
2023-03-05T20:28:28.452Z,19.60
2023-03-05T20:31:27.701Z,14.18
2023-03-05T20:34:27.470Z,17.77
2023-03-05T20:37:30.854Z,12.80
2023-03-05T20:40:28.790Z,14.45
2023-03-05T20:43:32.331Z,12.20
2023-03-05T20:46:33.108Z,13.45
2023-03-05T20:49:31.240Z,16.23
2023-03-05T20:52:29.041Z,14.52
2023-03-05T20:55:29.329Z,16.45
2023-03-05T20:58:27.133Z,12.88
2023-03-05T21:01:25.667Z,13.48
2023-03-05T21:04:23.738Z,15.48
2023-03-05T21:07:21.872Z,11.20
2023-03-05T21:10:20.749Z,13.95
2023-03-05T21:13:18.802Z,12.55
2023-03-05T21:16:21.406Z,11.60
2023-03-05T21:19:19.463Z,15.52
2023-03-05T21:22:17.288Z,10.20
2023-03-05T21:25:21.679Z,12.80
2023-03-05T21:28:19.569Z,12.43
2023-03-05T21:31:21.605Z,14.07
2023-03-05T21:34:20.173Z,11.45
2023-03-05T21:37:18.189Z,12.65
2023-03-05T21:40:18.271Z,14.38
2023-03-05T21:43:19.371Z,10.65
2023-03-05T21:46:17.268Z,11.32
2023-03-05T21:49:15.362Z,12.60
2023-03-05T21:52:13.319Z,11.95
2023-03-05T21:55:16.915Z,14.50
2023-03-05T21:58:19.024Z,12.35
2023-03-05T22:01:19.935Z,13.88
2023-03-05T22:04:17.785Z,17.83
2023-03-05T22:07:17.000Z,14.68
2023-03-05T22:10:17.951Z,14.88
2023-03-05T22:13:18.247Z,12.30
2023-03-05T22:16:25.704Z,10.88
2023-03-05T22:19:23.870Z,12.93
2023-03-05T22:22:21.695Z,11.75
2023-03-05T22:25:19.700Z,12.63
2023-03-05T22:28:17.565Z,13.25
2023-03-05T22:31:24.409Z,14.18
2023-03-05T22:34:22.241Z,12.80
2023-03-05T22:37:21.328Z,15.05
2023-03-05T22:40:20.985Z,10.13
2023-03-05T22:43:20.434Z,13.98
2023-03-05T22:46:25.526Z,16.02
2023-03-05T22:49:23.541Z,10.95
2023-03-05T22:52:21.390Z,14.60
2023-03-05T22:55:19.501Z,11.68
2023-03-05T22:58:17.492Z,12.48
2023-03-05T23:01:19.322Z,11.55
2023-03-05T23:04:29.498Z,10.55
2023-03-05T23:07:31.241Z,11.38
2023-03-05T23:10:29.945Z,9.73
2023-03-05T23:13:28.205Z,16.02
2023-03-05T23:16:26.196Z,14.63
2023-03-05T23:19:24.183Z,12.25
2023-03-05T23:22:22.470Z,12.90
2023-03-05T23:25:21.772Z,10.55
2023-03-05T23:28:21.059Z,12.60
2023-03-05T23:31:20.046Z,9.68
2023-03-05T23:34:17.894Z,12.82
2023-03-05T23:37:15.899Z,12.35
2023-03-05T23:40:18.579Z,12.77
2023-03-05T23:43:18.912Z,12.35
2023-03-05T23:46:16.746Z,12.63
2023-03-05T23:49:14.731Z,10.50
2023-03-05T23:52:12.721Z,13.57
2023-03-05T23:55:17.170Z,11.32
2023-03-05T23:58:15.580Z,12.63
